createdAt,value
2018-11-29T00:01:12.834Z,1.70
2018-11-29T00:03:41.088Z,1.70
2018-11-29T00:06:09.408Z,1.70
2018-11-29T00:08:37.630Z,1.80
2018-11-29T00:11:06.142Z,1.80
2018-11-29T00:13:34.385Z,1.80
2018-11-29T00:16:02.577Z,1.70
2018-11-29T00:18:30.883Z,1.60
2018-11-29T00:20:59.258Z,1.70
2018-11-29T00:23:27.465Z,1.80
2018-11-29T00:25:56.217Z,1.80
2018-11-29T00:28:24.453Z,1.80
2018-11-29T00:30:52.701Z,1.70
2018-11-29T00:33:20.920Z,1.80
2018-11-29T00:35:49.516Z,1.70
2018-11-29T00:38:17.744Z,1.70
2018-11-29T00:40:46.017Z,1.50
2018-11-29T00:43:14.403Z,1.50
2018-11-29T00:45:42.619Z,1.60
2018-11-29T00:48:10.977Z,1.50
2018-11-29T00:50:39.301Z,1.50
2018-11-29T00:53:08.586Z,1.50
2018-11-29T00:55:36.878Z,1.60
2018-11-29T00:58:05.383Z,1.70
2018-11-29T01:00:33.686Z,1.70
2018-11-29T01:03:01.934Z,1.60
2018-11-29T01:05:30.995Z,1.50
2018-11-29T01:08:00.537Z,1.50
2018-11-29T01:10:28.941Z,1.50
2018-11-29T01:12:57.206Z,1.50
2018-11-29T01:15:25.470Z,1.30
2018-11-29T01:17:53.734Z,1.30
2018-11-29T01:20:22.229Z,1.30
2018-11-29T01:22:50.470Z,1.40
2018-11-29T01:25:18.709Z,1.40
2018-11-29T01:27:49.058Z,1.40
2018-11-29T01:30:18.202Z,1.50
2018-11-29T01:32:46.398Z,1.50
2018-11-29T01:35:15.758Z,1.60
2018-11-29T01:37:45.202Z,1.60
2018-11-29T01:40:17.206Z,1.60
2018-11-29T01:42:47.090Z,1.50
2018-11-29T01:45:15.567Z,1.50
2018-11-29T01:47:43.780Z,1.50
2018-11-29T01:50:12.045Z,1.40
2018-11-29T01:52:40.257Z,1.30
2018-11-29T01:55:09.194Z,1.30
2018-11-29T01:57:37.448Z,1.40
2018-11-29T02:00:08.183Z,1.30
2018-11-29T02:02:36.383Z,1.40
2018-11-29T02:05:05.177Z,1.30
2018-11-29T02:07:33.470Z,1.30
2018-11-29T02:10:07.234Z,1.30
2018-11-29T02:12:35.435Z,1.30
2018-11-29T02:15:03.702Z,1.30
2018-11-29T02:17:31.916Z,1.20
2018-11-29T02:20:00.154Z,1.20
2018-11-29T02:22:28.337Z,1.30
2018-11-29T02:24:56.551Z,1.20
2018-11-29T02:27:24.776Z,1.20
2018-11-29T02:29:53.015Z,1.30
2018-11-29T02:32:21.229Z,1.30
2018-11-29T02:52:05.757Z,1.60
2018-11-29T02:54:33.945Z,1.50
2018-11-29T02:57:02.234Z,1.50
2018-11-29T02:59:30.584Z,1.50
2018-11-29T03:01:58.828Z,1.50
2018-11-29T03:04:27.074Z,1.50
2018-11-29T03:06:55.286Z,1.40
2018-11-29T03:09:23.555Z,1.40
2018-11-29T03:11:51.794Z,1.60
2018-11-29T03:14:20.034Z,1.70
2018-11-29T03:16:48.257Z,1.70
2018-11-29T03:19:16.482Z,1.60
2018-11-29T03:21:44.683Z,1.60
2018-11-29T03:24:12.973Z,1.60
2018-11-29T03:26:41.211Z,1.60
2018-11-29T03:29:09.446Z,1.50
2018-11-29T03:31:37.647Z,1.40
2018-11-29T03:34:06.937Z,1.40
2018-11-29T03:36:35.383Z,1.50
2018-11-29T03:39:03.720Z,1.50
2018-11-29T03:41:31.941Z,1.40
2018-11-29T03:44:00.193Z,1.50
2018-11-29T03:46:28.473Z,1.50
2018-11-29T03:48:56.728Z,1.50
2018-11-29T03:51:25.036Z,1.50
2018-11-29T03:53:53.234Z,1.50
2018-11-29T03:56:21.481Z,1.60
2018-11-29T03:58:49.777Z,1.70
2018-11-29T04:01:18.047Z,1.70
2018-11-29T04:03:46.341Z,1.70
2018-11-29T04:06:14.557Z,1.70
2018-11-29T04:08:42.802Z,1.60
2018-11-29T04:11:11.560Z,1.70
2018-11-29T04:13:39.883Z,1.70
2018-11-29T04:16:08.116Z,1.70
2018-11-29T04:18:36.448Z,1.60
2018-11-29T04:21:04.726Z,1.60
2018-11-29T04:23:32.954Z,1.70
2018-11-29T04:26:01.313Z,1.70
2018-11-29T04:28:29.578Z,1.70
2018-11-29T04:30:57.786Z,1.60
2018-11-29T04:33:26.236Z,1.60
2018-11-29T04:35:54.589Z,1.60
2018-11-29T04:38:22.783Z,1.50
2018-11-29T04:40:51.154Z,1.40
2018-11-29T04:43:19.515Z,1.30
2018-11-29T04:45:58.971Z,1.20
2018-11-29T04:48:27.347Z,1.40
2018-11-29T04:50:55.609Z,1.40
2018-11-29T04:53:24.097Z,1.40
2018-11-29T04:55:52.450Z,1.50
2018-11-29T04:58:20.757Z,1.50
2018-11-29T05:00:49.113Z,1.50
2018-11-29T05:03:17.330Z,1.50
2018-11-29T05:05:45.610Z,1.50
2018-11-29T05:08:13.882Z,1.50
2018-11-29T05:10:42.133Z,1.50
2018-11-29T05:13:10.379Z,1.40
2018-11-29T05:15:38.640Z,1.50
2018-11-29T05:18:06.846Z,1.50
2018-11-29T05:20:35.127Z,1.50
2018-11-29T05:23:03.598Z,1.60
2018-11-29T05:25:31.862Z,1.60
2018-11-29T05:28:00.054Z,1.60
2018-11-29T05:30:28.385Z,1.70
2018-11-29T05:32:56.622Z,1.60
2018-11-29T05:35:24.875Z,1.60
2018-11-29T05:37:53.079Z,1.50
2018-11-29T05:40:21.313Z,1.50
2018-11-29T05:42:49.596Z,1.60
2018-11-29T05:45:17.843Z,1.60
2018-11-29T05:47:46.083Z,1.50
2018-11-29T05:50:14.278Z,1.60
2018-11-29T05:52:50.449Z,1.70
2018-11-29T05:55:18.840Z,1.70
2018-11-29T05:57:47.060Z,1.70
2018-11-29T06:00:15.294Z,1.80
2018-11-29T06:02:43.966Z,1.90
2018-11-29T06:05:13.574Z,1.90
2018-11-29T06:07:41.804Z,2.00
2018-11-29T06:10:09.996Z,2.00
2018-11-29T06:12:38.305Z,2.10
2018-11-29T06:15:08.094Z,2.00
2018-11-29T06:17:36.383Z,1.90
2018-11-29T06:20:05.185Z,1.80
2018-11-29T06:22:33.667Z,2.00
2018-11-29T06:25:01.920Z,1.90
2018-11-29T06:27:30.239Z,1.90
2018-11-29T06:29:58.459Z,1.90
2018-11-29T06:32:26.704Z,1.80
2018-11-29T06:34:54.959Z,1.80
2018-11-29T06:37:23.347Z,1.70
2018-11-29T06:39:51.541Z,1.70
2018-11-29T06:42:19.778Z,1.70
2018-11-29T06:44:48.035Z,1.80
2018-11-29T06:47:16.266Z,1.80
2018-11-29T06:49:44.479Z,1.70
2018-11-29T06:52:12.746Z,1.90
2018-11-29T06:54:41.115Z,1.80
2018-11-29T06:57:09.324Z,1.90
2018-11-29T06:59:37.571Z,1.90
2018-11-29T07:02:06.097Z,1.90
2018-11-29T07:04:34.684Z,1.90
2018-11-29T07:07:03.033Z,1.90
2018-11-29T07:09:31.289Z,1.90
2018-11-29T07:11:59.562Z,1.90
2018-11-29T07:14:27.854Z,1.90
2018-11-29T07:16:56.123Z,1.90
2018-11-29T07:19:24.397Z,1.80
2018-11-29T07:21:53.748Z,1.80
2018-11-29T07:24:22.601Z,1.90
2018-11-29T07:26:50.952Z,1.80
2018-11-29T07:29:20.382Z,1.80
2018-11-29T07:31:48.947Z,1.80
2018-11-29T07:34:17.243Z,1.80
2018-11-29T07:36:45.644Z,1.70
2018-11-29T07:39:14.159Z,1.80
2018-11-29T07:41:42.508Z,1.80
2018-11-29T07:44:10.957Z,1.80
2018-11-29T07:46:39.355Z,1.80
2018-11-29T07:49:07.870Z,2.00
2018-11-29T07:51:36.428Z,2.00
2018-11-29T07:54:05.087Z,2.10
2018-11-29T07:56:33.677Z,2.10
2018-11-29T07:59:02.174Z,2.20
2018-11-29T08:01:30.639Z,2.30
2018-11-29T08:03:59.078Z,2.30
2018-11-29T08:06:27.602Z,2.30
2018-11-29T08:08:55.934Z,2.20
2018-11-29T08:11:24.163Z,2.20
2018-11-29T08:13:52.448Z,2.20
2018-11-29T08:16:20.726Z,2.30
2018-11-29T08:18:48.974Z,2.30
2018-11-29T08:21:17.301Z,2.40
2018-11-29T08:23:45.768Z,2.50
2018-11-29T08:26:14.089Z,2.50
2018-11-29T08:28:42.372Z,2.70
2018-11-29T08:31:11.923Z,2.70
2018-11-29T08:33:40.236Z,2.80
2018-11-29T08:36:08.480Z,2.80
2018-11-29T08:38:36.823Z,2.90
2018-11-29T08:41:05.130Z,2.80
2018-11-29T08:43:33.446Z,2.80
2018-11-29T08:46:01.745Z,2.90
2018-11-29T08:48:29.998Z,3.10
2018-11-29T08:50:58.273Z,3.20
2018-11-29T08:53:26.823Z,3.20
2018-11-29T08:55:55.000Z,3.40
2018-11-29T08:58:23.372Z,3.30
2018-11-29T09:00:51.659Z,3.50
2018-11-29T09:03:20.071Z,3.50
2018-11-29T09:05:48.287Z,3.70
2018-11-29T09:08:16.647Z,3.80
2018-11-29T09:10:44.931Z,3.80
2018-11-29T09:13:13.287Z,3.90
2018-11-29T09:15:41.568Z,3.90
2018-11-29T09:18:09.781Z,4.00
2018-11-29T09:20:38.087Z,4.10
2018-11-29T09:23:06.955Z,4.10
2018-11-29T09:25:35.481Z,4.00
2018-11-29T09:28:03.667Z,3.90
2018-11-29T09:30:31.936Z,3.90
2018-11-29T09:33:00.176Z,3.80
2018-11-29T09:35:28.802Z,3.90
2018-11-29T09:37:57.598Z,4.00
2018-11-29T09:40:26.100Z,4.10
2018-11-29T09:42:54.499Z,4.10
2018-11-29T09:45:23.470Z,4.10
2018-11-29T09:47:53.549Z,4.20
2018-11-29T09:50:21.942Z,4.30
2018-11-29T09:52:50.147Z,4.00
2018-11-29T09:55:18.382Z,4.10
2018-11-29T09:57:47.578Z,4.20
2018-11-29T10:00:28.579Z,4.10
2018-11-29T10:03:04.058Z,4.10
2018-11-29T10:05:32.420Z,4.20
2018-11-29T10:08:00.736Z,4.30
2018-11-29T10:10:29.039Z,4.20
2018-11-29T10:12:57.330Z,4.40
2018-11-29T10:15:25.647Z,4.60
2018-11-29T10:17:53.927Z,4.70
2018-11-29T10:20:22.464Z,5.10
2018-11-29T10:22:50.724Z,6.20
2018-11-29T10:25:19.035Z,7.50
2018-11-29T10:27:49.315Z,8.40
2018-11-29T10:30:22.267Z,8.10
2018-11-29T10:32:50.724Z,8.40
2018-11-29T10:35:19.002Z,8.70
2018-11-29T10:37:47.262Z,8.70
2018-11-29T10:40:15.503Z,8.20
2018-11-29T10:42:43.792Z,7.60
2018-11-29T10:45:14.123Z,7.10
2018-11-29T10:47:43.298Z,6.50
2018-11-29T10:50:12.657Z,6.30
2018-11-29T10:52:40.929Z,5.90
2018-11-29T10:55:12.372Z,5.80
2018-11-29T10:57:40.992Z,5.60
2018-11-29T11:00:25.517Z,5.50
2018-11-29T11:03:00.343Z,5.50
2018-11-29T11:05:28.605Z,5.30
2018-11-29T11:07:56.897Z,5.30
2018-11-29T11:10:25.052Z,5.20
2018-11-29T11:12:53.361Z,5.20
2018-11-29T11:15:21.633Z,5.10
2018-11-29T11:17:50.040Z,5.00
2018-11-29T11:20:18.290Z,5.20
2018-11-29T11:22:46.587Z,5.40
2018-11-29T11:25:14.826Z,5.50
2018-11-29T11:27:43.048Z,5.60
2018-11-29T11:30:13.342Z,5.60
2018-11-29T11:32:41.769Z,5.70
2018-11-29T11:35:10.404Z,5.90
2018-11-29T11:37:38.728Z,6.10
2018-11-29T11:40:09.701Z,5.90
2018-11-29T11:42:38.030Z,6.00
2018-11-29T11:45:09.953Z,6.00
2018-11-29T11:47:38.140Z,6.00
2018-11-29T11:50:13.071Z,5.90
2018-11-29T11:52:41.310Z,5.90
2018-11-29T11:55:10.007Z,5.90
2018-11-29T11:57:39.313Z,6.00
2018-11-29T12:00:14.952Z,6.00
2018-11-29T12:02:43.810Z,6.10
2018-11-29T12:05:12.484Z,6.20
2018-11-29T12:07:41.179Z,6.30
2018-11-29T12:10:11.707Z,6.30
2018-11-29T12:12:40.121Z,6.40
2018-11-29T12:15:10.497Z,6.40
2018-11-29T12:17:38.952Z,6.40
2018-11-29T12:20:10.274Z,6.40
2018-11-29T12:22:38.573Z,6.40
2018-11-29T12:25:08.356Z,6.50
2018-11-29T12:27:36.610Z,6.60
2018-11-29T12:30:10.369Z,6.50
2018-11-29T12:32:39.404Z,6.50
2018-11-29T12:35:07.721Z,6.60
2018-11-29T12:37:35.970Z,6.40
2018-11-29T12:40:04.474Z,6.20
2018-11-29T12:42:33.868Z,6.30
2018-11-29T12:45:02.258Z,6.10
2018-11-29T12:47:30.435Z,6.10
2018-11-29T12:49:58.671Z,6.10
2018-11-29T12:52:26.978Z,6.10
2018-11-29T12:54:55.188Z,6.20
2018-11-29T12:57:23.367Z,6.20
2018-11-29T12:59:52.070Z,6.30
2018-11-29T13:02:20.297Z,6.30
2018-11-29T13:04:48.521Z,6.10
2018-11-29T13:07:23.475Z,6.10
2018-11-29T13:09:51.649Z,6.20
2018-11-29T13:12:19.880Z,6.20
2018-11-29T13:14:52.218Z,6.20
2018-11-29T13:17:20.468Z,6.20
2018-11-29T13:19:48.773Z,6.30
2018-11-29T13:22:16.978Z,6.40
2018-11-29T13:24:45.288Z,6.50
2018-11-29T13:27:13.570Z,6.40
2018-11-29T13:29:41.774Z,6.40
2018-11-29T13:32:10.039Z,6.30
2018-11-29T13:34:38.270Z,6.20
2018-11-29T13:37:06.566Z,6.20
2018-11-29T13:39:34.843Z,6.00
2018-11-29T13:42:03.179Z,6.00
2018-11-29T13:44:31.462Z,6.10
2018-11-29T13:46:59.746Z,6.00
2018-11-29T13:49:28.041Z,6.00
2018-11-29T13:51:56.305Z,6.10
2018-11-29T13:54:24.577Z,6.10
2018-11-29T13:56:52.853Z,5.90
2018-11-29T13:59:21.035Z,5.80
2018-11-29T14:01:49.246Z,5.70
2018-11-29T14:04:17.418Z,5.80
2018-11-29T14:06:45.630Z,5.70
2018-11-29T14:09:13.835Z,5.70
2018-11-29T14:11:42.115Z,5.60
2018-11-29T14:14:10.435Z,5.70
2018-11-29T14:16:38.664Z,5.70
2018-11-29T14:19:06.874Z,5.60
2018-11-29T14:21:35.187Z,5.60
2018-11-29T14:24:03.499Z,5.60
2018-11-29T14:26:31.767Z,5.50
2018-11-29T14:29:00.037Z,5.50
2018-11-29T14:31:28.228Z,5.50
2018-11-29T14:33:56.496Z,5.30
2018-11-29T14:36:24.794Z,5.30
2018-11-29T14:38:53.039Z,5.30
2018-11-29T14:41:21.329Z,5.20
2018-11-29T14:43:49.534Z,5.30
2018-11-29T14:46:17.729Z,5.30
2018-11-29T14:48:45.964Z,5.20
2018-11-29T14:51:14.181Z,5.10
2018-11-29T14:53:42.370Z,5.10
2018-11-29T14:56:10.619Z,5.00
2018-11-29T14:58:38.930Z,4.90
2018-11-29T15:01:07.951Z,4.90
2018-11-29T15:03:36.216Z,4.90
2018-11-29T15:06:04.409Z,4.90
2018-11-29T15:08:32.613Z,4.90
2018-11-29T15:11:01.264Z,4.90
2018-11-29T15:13:29.495Z,4.80
2018-11-29T15:15:57.857Z,4.80
2018-11-29T15:18:26.093Z,4.90
2018-11-29T15:20:54.361Z,4.90
2018-11-29T15:23:22.599Z,4.90
2018-11-29T15:25:50.889Z,4.90
2018-11-29T15:28:19.169Z,4.90
2018-11-29T15:30:47.423Z,4.80
2018-11-29T15:33:15.659Z,4.80
2018-11-29T15:35:43.880Z,4.80
2018-11-29T15:38:12.248Z,4.90
2018-11-29T15:40:40.773Z,4.90
2018-11-29T15:43:09.110Z,4.90
2018-11-29T15:45:37.692Z,4.90
2018-11-29T15:48:06.042Z,4.90
2018-11-29T15:50:34.390Z,4.80
2018-11-29T15:53:02.880Z,4.90
2018-11-29T15:55:31.269Z,4.90
2018-11-29T15:57:59.633Z,4.80
2018-11-29T16:00:30.655Z,4.70
2018-11-29T16:03:02.095Z,4.70
2018-11-29T16:05:30.690Z,4.80
2018-11-29T16:07:59.014Z,4.80
2018-11-29T16:10:27.638Z,4.80
2018-11-29T16:12:55.909Z,4.80
2018-11-29T16:15:24.188Z,4.80
2018-11-29T16:17:53.035Z,4.80
2018-11-29T16:20:27.406Z,4.60
2018-11-29T16:22:55.814Z,4.70
2018-11-29T16:25:24.091Z,4.60
2018-11-29T16:27:52.464Z,4.60
2018-11-29T16:30:24.114Z,4.50
2018-11-29T16:32:52.519Z,4.40
2018-11-29T16:35:20.744Z,4.50
2018-11-29T16:37:48.974Z,4.50
2018-11-29T16:40:17.551Z,4.60
2018-11-29T16:42:45.643Z,4.50
2018-11-29T16:45:14.123Z,4.50
2018-11-29T16:47:42.867Z,4.50
2018-11-29T16:50:12.636Z,4.50
2018-11-29T16:52:40.964Z,4.50
2018-11-29T16:55:10.267Z,4.30
2018-11-29T16:57:40.196Z,4.30
2018-11-29T17:00:13.381Z,4.30
2018-11-29T17:02:41.888Z,4.40
2018-11-29T17:05:12.508Z,4.40
2018-11-29T17:07:42.021Z,4.30
2018-11-29T17:10:12.964Z,4.30
2018-11-29T17:12:42.555Z,4.20
2018-11-29T17:15:13.094Z,4.20
2018-11-29T17:17:41.709Z,4.20
2018-11-29T17:20:11.715Z,4.20
2018-11-29T17:22:40.470Z,4.20
2018-11-29T17:25:10.218Z,4.20
2018-11-29T17:27:38.796Z,4.20
2018-11-29T17:30:11.940Z,4.30
2018-11-29T17:32:40.247Z,4.10
2018-11-29T17:35:08.606Z,4.00
2018-11-29T17:37:36.840Z,4.00
2018-11-29T17:40:09.131Z,4.10
2018-11-29T17:42:37.400Z,4.10
2018-11-29T17:45:07.785Z,4.10
2018-11-29T17:49:05.694Z,4.10
2018-11-29T17:51:34.002Z,4.20
2018-11-29T17:54:02.257Z,4.20
2018-11-29T17:56:30.492Z,4.20
2018-11-29T17:58:58.777Z,4.10
2018-11-29T18:01:27.001Z,4.20
2018-11-29T18:03:55.280Z,4.20
2018-11-29T18:06:23.523Z,4.10
2018-11-29T18:08:51.870Z,4.10
2018-11-29T18:11:20.122Z,4.10
2018-11-29T18:13:48.423Z,4.00
2018-11-29T18:16:16.697Z,3.90
2018-11-29T18:18:44.921Z,3.90
2018-11-29T18:21:13.329Z,3.90
2018-11-29T18:23:46.864Z,3.90
2018-11-29T18:26:09.919Z,4.00
2018-11-29T18:28:38.227Z,4.00
2018-11-29T18:31:06.506Z,4.00
2018-11-29T18:33:34.751Z,3.90
2018-11-29T18:36:03.129Z,3.90
2018-11-29T18:38:31.360Z,3.90
2018-11-29T18:40:59.686Z,4.00
2018-11-29T18:43:28.039Z,4.00
2018-11-29T18:45:56.294Z,3.90
2018-11-29T18:48:24.508Z,3.80
2018-11-29T18:50:52.780Z,3.80
2018-11-29T18:53:25.512Z,3.90
2018-11-29T18:56:00.486Z,3.90
2018-11-29T18:58:25.969Z,3.90
2018-11-29T19:00:54.317Z,3.80
2018-11-29T19:03:22.776Z,3.80
2018-11-29T19:05:51.333Z,3.70
2018-11-29T19:08:19.811Z,3.70
2018-11-29T19:10:48.177Z,3.70
2018-11-29T19:13:16.440Z,3.70
2018-11-29T19:15:44.772Z,3.80
2018-11-29T19:18:13.008Z,3.80
2018-11-29T19:20:41.349Z,3.70
2018-11-29T19:23:09.660Z,3.70
2018-11-29T19:25:38.042Z,3.60
2018-11-29T19:28:06.951Z,3.70
2018-11-29T19:30:35.595Z,3.80
2018-11-29T19:33:10.756Z,3.70
2018-11-29T19:52:56.887Z,3.60
2018-11-29T19:55:27.404Z,3.50
2018-11-29T19:57:55.877Z,3.50
2018-11-29T20:00:24.202Z,3.60
2018-11-29T20:02:53.740Z,3.50
2018-11-29T20:05:22.104Z,3.40
2018-11-29T20:07:50.947Z,3.30
2018-11-29T20:10:19.982Z,3.40
2018-11-29T20:12:53.974Z,3.20
2018-11-29T20:15:22.236Z,3.20
2018-11-29T20:17:50.557Z,3.30
2018-11-29T20:20:18.807Z,3.20
2018-11-29T20:22:47.040Z,3.30
2018-11-29T20:25:17.355Z,3.30
2018-11-29T20:27:45.696Z,3.30
2018-11-29T20:30:16.283Z,3.30
2018-11-29T20:32:44.770Z,3.40
2018-11-29T20:35:13.367Z,3.30
2018-11-29T20:37:41.902Z,3.20
2018-11-29T20:40:11.884Z,3.20
2018-11-29T20:42:40.283Z,3.30
2018-11-29T20:45:12.079Z,3.30
2018-11-29T20:47:41.478Z,3.30
2018-11-29T20:50:14.719Z,3.40
2018-11-29T20:52:40.042Z,3.50
2018-11-29T20:56:39.976Z,3.50
2018-11-29T20:59:08.297Z,3.50
2018-11-29T21:01:36.642Z,3.20
2018-11-29T21:04:05.091Z,3.20
2018-11-29T21:06:33.410Z,3.30
2018-11-29T21:09:01.667Z,3.20
2018-11-29T21:11:29.905Z,3.10
2018-11-29T21:13:58.219Z,3.20
2018-11-29T21:16:27.336Z,3.20
2018-11-29T21:18:55.684Z,3.30
2018-11-29T21:21:24.141Z,3.20
2018-11-29T21:23:52.518Z,3.30
2018-11-29T21:26:20.790Z,3.20
2018-11-29T21:28:49.010Z,3.10
2018-11-29T21:31:17.278Z,3.00
2018-11-29T21:51:01.771Z,3.10
2018-11-29T21:53:30.068Z,3.20
2018-11-29T21:55:58.458Z,3.30
2018-11-29T21:58:26.871Z,3.30
2018-11-29T22:00:55.198Z,3.40
2018-11-29T22:03:23.543Z,3.30
2018-11-29T22:05:51.748Z,3.30
2018-11-29T22:08:20.022Z,3.30
2018-11-29T22:10:48.324Z,3.40
2018-11-29T22:13:16.677Z,3.40
2018-11-29T22:15:44.986Z,3.50
2018-11-29T22:18:19.163Z,3.50
2018-11-29T22:20:48.472Z,3.50
2018-11-29T22:23:16.788Z,3.50
2018-11-29T22:25:45.033Z,3.40
2018-11-29T22:28:13.275Z,3.50
2018-11-29T22:30:41.564Z,3.40
2018-11-29T22:33:09.826Z,3.50
2018-11-29T22:35:38.035Z,3.50
2018-11-29T22:38:07.048Z,3.50
2018-11-29T22:40:35.269Z,3.60
2018-11-29T22:43:03.482Z,3.50
2018-11-29T22:45:31.703Z,3.60
2018-11-29T22:47:59.925Z,3.60
2018-11-29T22:50:28.129Z,3.50
2018-11-29T22:52:56.479Z,3.50
2018-11-29T22:55:24.723Z,3.50
2018-11-29T22:57:52.936Z,3.30
2018-11-29T23:00:21.191Z,2.90
2018-11-29T23:02:49.917Z,2.80
2018-11-29T23:05:18.167Z,3.00
2018-11-29T23:07:46.432Z,2.90
2018-11-29T23:10:14.825Z,2.90
2018-11-29T23:12:43.170Z,3.00
2018-11-29T23:15:12.297Z,3.10
2018-11-29T23:17:40.644Z,3.10
2018-11-29T23:20:10.995Z,3.20
2018-11-29T23:22:39.962Z,3.10
2018-11-29T23:25:09.794Z,3.10
2018-11-29T23:27:38.120Z,2.90
2018-11-29T23:30:10.119Z,3.00
2018-11-29T23:32:38.315Z,2.80
2018-11-29T23:52:22.655Z,3.20
2018-11-29T23:54:50.882Z,3.30
2018-11-29T23:57:19.134Z,3.30
2018-11-29T23:59:47.411Z,3.40
